Time;durP1;ratioP1;P1;durP2;ratioP2;P2;SDS_P1;SDS_P2;PMS_P1;PMS_P2;Temp;Humidity;BMP_temperature;BMP_pressure;BME280_temperature;BME280_humidity;BME280_pressure;Samples;Min_cycle;Max_cycle;Signal;HPM_P1;HPM_P2
2021/12/31 00:02:27;;;;;;;0.75;0.75;;;23.20;45.20;;;;;;5126596;27;46903;-18
2021/12/31 00:04:55;;;;;;;0.50;0.50;;;23.20;45.20;;;;;;5126694;27;46883;-19
2021/12/31 00:07:22;;;;;;;0.70;0.70;;;23.20;45.20;;;;;;5126441;27;46826;-18
2021/12/31 00:09:49;;;;;;;1.33;0.70;;;23.20;45.10;;;;;;5126503;27;46888;-18
2021/12/31 00:12:16;;;;;;;0.65;0.65;;;23.20;45.10;;;;;;5126192;27;46883;-19
2021/12/31 00:14:42;;;;;;;0.63;0.63;;;23.20;45.10;;;;;;5126014;27;46819;-18
2021/12/31 00:17:09;;;;;;;0.80;0.80;;;23.20;45.00;;;;;;5126273;27;46866;-18
2021/12/31 00:19:43;;;;;;;0.63;0.60;;;23.20;45.00;;;;;;5126229;27;47020;-18
2021/12/31 00:22:32;;;;;;;0.93;0.82;;;23.20;45.00;;;;;;5126534;27;48118;-18
2021/12/31 00:24:59;;;;;;;0.70;0.70;;;23.20;44.90;;;;;;5126260;27;46848;-19
2021/12/31 00:27:26;;;;;;;0.70;0.70;;;23.30;44.90;;;;;;5126231;27;46896;-18
2021/12/31 00:29:52;;;;;;;0.80;0.70;;;23.30;44.90;;;;;;5126077;27;46898;-18
2021/12/31 00:32:19;;;;;;;0.95;0.70;;;23.30;44.90;;;;;;5126249;27;49045;-19
2021/12/31 00:34:47;;;;;;;0.98;0.90;;;23.30;44.90;;;;;;5125847;27;47074;-18
2021/12/31 00:37:14;;;;;;;0.63;0.63;;;23.30;44.90;;;;;;5126045;27;46897;-18
2021/12/31 00:39:40;;;;;;;0.55;0.55;;;23.30;44.80;;;;;;5126289;27;47314;-18
2021/12/31 00:42:07;;;;;;;0.75;0.75;;;23.20;44.80;;;;;;5125952;27;48209;-18
2021/12/31 00:44:34;;;;;;;1.23;0.70;;;23.20;44.80;;;;;;5125858;27;46834;-18
2021/12/31 00:47:00;;;;;;;0.80;0.80;;;23.20;44.80;;;;;;5126396;27;46872;-18
2021/12/31 00:49:27;;;;;;;1.02;0.90;;;23.20;44.80;;;;;;5126049;27;47363;-19
2021/12/31 00:51:55;;;;;;;0.90;0.90;;;23.20;44.80;;;;;;5125723;27;47943;-19
2021/12/31 00:54:22;;;;;;;0.95;0.95;;;23.20;44.80;;;;;;5125920;27;47427;-18
2021/12/31 00:56:49;;;;;;;0.80;0.80;;;23.20;44.80;;;;;;5126101;27;46745;-18
2021/12/31 00:59:15;;;;;;;0.80;0.80;;;23.20;44.80;;;;;;5125719;27;47255;-18
2021/12/31 01:01:42;;;;;;;0.90;0.90;;;23.20;44.80;;;;;;5125970;27;47954;-18
2021/12/31 01:04:09;;;;;;;1.35;0.90;;;23.20;44.80;;;;;;5125783;27;47428;-18
2021/12/31 01:06:35;;;;;;;1.00;0.90;;;23.20;44.80;;;;;;5126056;27;46871;-19
2021/12/31 01:09:03;;;;;;;0.80;0.80;;;23.20;44.80;;;;;;5128020;27;46891;-18
2021/12/31 01:11:31;;;;;;;0.70;0.70;;;23.20;44.80;;;;;;5129302;27;49058;-18
2021/12/31 01:14:01;;;;;;;0.80;0.80;;;23.20;44.70;;;;;;5129277;27;47614;-18
2021/12/31 01:16:37;;;;;;;1.25;0.93;;;23.20;44.70;;;;;;5129402;27;46860;-18
2021/12/31 01:21:53;;;;;;;0.90;0.90;;;23.20;44.70;;;;;;5116978;27;47086;-18
2021/12/31 01:24:23;;;;;;;0.70;0.70;;;23.10;44.60;;;;;;5128976;27;46988;-18
2021/12/31 01:26:50;;;;;;;1.05;0.90;;;23.10;44.70;;;;;;5129208;27;46843;-19
2021/12/31 01:29:16;;;;;;;0.70;0.70;;;23.10;44.60;;;;;;5128899;27;46882;-18
2021/12/31 01:31:43;;;;;;;0.82;0.70;;;23.10;44.60;;;;;;5129065;27;49125;-18
2021/12/31 01:34:10;;;;;;;0.80;0.80;;;23.10;44.60;;;;;;5128852;27;46943;-18
2021/12/31 01:36:36;;;;;;;0.82;0.82;;;23.10;44.60;;;;;;5128806;27;46863;-19
2021/12/31 01:39:03;;;;;;;0.70;0.70;;;23.10;44.60;;;;;;5129174;27;47270;-18
2021/12/31 01:41:31;;;;;;;1.63;0.95;;;23.10;44.50;;;;;;5128583;27;47913;-18
2021/12/31 01:44:04;;;;;;;0.88;0.80;;;23.10;44.50;;;;;;5128549;27;47082;-19
2021/12/31 01:46:30;;;;;;;0.68;0.68;;;23.10;44.50;;;;;;5129143;27;46908;-18
2021/12/31 01:49:02;;;;;;;0.73;0.73;;;23.20;44.50;;;;;;5128953;27;46835;-18
2021/12/31 01:51:29;;;;;;;1.40;0.77;;;23.10;44.40;;;;;;5128852;27;46925;-19
2021/12/31 01:53:56;;;;;;;1.55;0.75;;;23.10;44.40;;;;;;5128252;27;46796;-18
2021/12/31 01:56:23;;;;;;;1.15;0.85;;;23.10;44.40;;;;;;5128498;27;46884;-19
2021/12/31 01:58:54;;;;;;;1.00;0.90;;;23.20;44.40;;;;;;5129108;27;47307;-18
2021/12/31 02:01:21;;;;;;;0.73;0.70;;;23.20;44.40;;;;;;5128488;27;46804;-18
2021/12/31 02:03:48;;;;;;;0.98;0.80;;;23.10;44.30;;;;;;5128607;27;47256;-18
2021/12/31 02:06:14;;;;;;;0.70;0.70;;;23.20;44.40;;;;;;5128458;27;47049;-18
2021/12/31 02:08:41;;;;;;;0.60;0.60;;;23.20;44.30;;;;;;5128702;27;47314;-18
2021/12/31 02:11:08;;;;;;;1.10;0.70;;;23.10;44.30;;;;;;5128693;27;48098;-18
2021/12/31 02:13:35;;;;;;;0.70;0.70;;;23.10;44.30;;;;;;5128093;27;46791;-18
2021/12/31 02:16:04;;;;;;;0.60;0.60;;;23.10;44.30;;;;;;5128772;27;46891;-19
2021/12/31 02:18:31;;;;;;;0.60;0.60;;;23.10;44.30;;;;;;5128143;27;46901;-19
2021/12/31 02:20:59;;;;;;;0.82;0.75;;;23.10;44.20;;;;;;5127856;27;49140;-19
2021/12/31 02:23:31;;;;;;;0.80;0.80;;;23.10;44.20;;;;;;5128304;27;46823;-18
2021/12/31 02:25:58;;;;;;;0.73;0.73;;;23.10;44.20;;;;;;5128350;27;46826;-18
2021/12/31 02:28:26;;;;;;;0.80;0.80;;;23.10;44.10;;;;;;5128374;27;46869;-19
2021/12/31 02:30:54;;;;;;;0.77;0.63;;;23.10;44.20;;;;;;5128006;27;48877;-18
2021/12/31 02:33:21;;;;;;;0.70;0.70;;;23.10;44.20;;;;;;5127802;27;46842;-18
2021/12/31 02:35:48;;;;;;;0.73;0.70;;;23.10;44.20;;;;;;5128348;27;47296;-18
2021/12/31 02:38:16;;;;;;;0.50;0.50;;;23.10;44.10;;;;;;5127875;27;47237;-18
2021/12/31 02:40:42;;;;;;;0.80;0.80;;;23.10;44.10;;;;;;5127551;27;47135;-18
2021/12/31 02:43:09;;;;;;;0.70;0.70;;;23.10;44.10;;;;;;5127872;27;46889;-18
2021/12/31 02:45:37;;;;;;;0.70;0.70;;;23.10;44.10;;;;;;5127495;27;46995;-18
2021/12/31 02:48:05;;;;;;;0.65;0.65;;;23.10;44.10;;;;;;5127839;27;46813;-18
2021/12/31 02:50:34;;;;;;;0.63;0.60;;;23.00;44.10;;;;;;5127173;27;47895;-18
2021/12/31 02:53:01;;;;;;;0.60;0.60;;;23.10;44.10;;;;;;5127506;27;46973;-18
2021/12/31 02:55:30;;;;;;;0.70;0.70;;;23.10;44.10;;;;;;5127289;27;46876;-18
2021/12/31 02:57:57;;;;;;;0.63;0.63;;;23.10;44.10;;;;;;5127964;27;46927;-19
2021/12/31 03:00:24;;;;;;;0.65;0.63;;;23.10;44.00;;;;;;5127459;27;47059;-18
2021/12/31 03:02:50;;;;;;;0.60;0.60;;;23.10;44.00;;;;;;5127316;27;46961;-18
2021/12/31 03:05:17;;;;;;;0.70;0.60;;;23.00;44.00;;;;;;5127058;27;46821;-18
2021/12/31 03:07:44;;;;;;;0.52;0.52;;;23.10;44.00;;;;;;5127673;27;47278;-18
2021/12/31 03:10:10;;;;;;;0.70;0.68;;;23.10;44.00;;;;;;5127257;27;48133;-18
2021/12/31 03:12:39;;;;;;;0.63;0.63;;;23.10;44.00;;;;;;5127663;27;46771;-18
2021/12/31 03:15:07;;;;;;;0.77;0.60;;;23.00;43.90;;;;;;5127098;27;46927;-18
2021/12/31 03:17:33;;;;;;;0.50;0.50;;;23.10;44.00;;;;;;5127546;27;47212;-18
2021/12/31 03:20:10;;;;;;;0.50;0.50;;;23.10;44.00;;;;;;5127124;27;47824;-18
2021/12/31 03:22:36;;;;;;;0.88;0.82;;;23.10;43.90;;;;;;5127393;27;46849;-18
2021/12/31 03:25:04;;;;;;;0.70;0.70;;;23.10;43.90;;;;;;5127022;27;46984;-18
2021/12/31 03:27:31;;;;;;;0.70;0.70;;;23.10;43.90;;;;;;5127288;27;46912;-18
2021/12/31 03:29:59;;;;;;;0.60;0.60;;;23.10;43.90;;;;;;5127011;27;48113;-18
2021/12/31 03:32:26;;;;;;;1.30;0.90;;;23.10;43.80;;;;;;5126165;27;46824;-18
2021/12/31 03:34:53;;;;;;;0.75;0.68;;;23.10;43.80;;;;;;5127249;27;46789;-19
2021/12/31 03:37:20;;;;;;;0.60;0.60;;;23.00;43.80;;;;;;5127070;27;46877;-18
2021/12/31 03:39:46;;;;;;;0.60;0.60;;;23.00;43.80;;;;;;5126743;27;47931;-19
2021/12/31 03:42:16;;;;;;;0.50;0.50;;;23.10;43.80;;;;;;5127014;27;46912;-19
2021/12/31 03:44:42;;;;;;;0.50;0.50;;;23.00;43.80;;;;;;5126150;27;47145;-18
2021/12/31 03:47:10;;;;;;;0.60;0.60;;;23.00;43.80;;;;;;5127306;27;47111;-18
2021/12/31 03:49:37;;;;;;;0.45;0.45;;;23.00;43.70;;;;;;5126565;27;49135;-19
2021/12/31 03:52:04;;;;;;;0.63;0.60;;;23.00;43.70;;;;;;5126860;27;46922;-19
2021/12/31 03:54:31;;;;;;;0.60;0.60;;;23.00;43.70;;;;;;5126901;27;46991;-19
2021/12/31 03:56:57;;;;;;;0.63;0.63;;;23.00;43.70;;;;;;5127157;27;46905;-19
2021/12/31 03:59:24;;;;;;;0.50;0.50;;;23.00;43.70;;;;;;5126544;27;47941;-18
2021/12/31 04:01:51;;;;;;;0.50;0.50;;;23.00;43.70;;;;;;5126728;27;46910;-19
2021/12/31 04:04:19;;;;;;;0.50;0.50;;;23.00;43.70;;;;;;5126137;27;46880;-18
2021/12/31 04:06:46;;;;;;;0.57;0.57;;;23.00;43.70;;;;;;5127073;27;47415;-18
2021/12/31 04:09:12;;;;;;;0.63;0.60;;;23.00;43.70;;;;;;5126305;27;47394;-18
2021/12/31 04:11:39;;;;;;;0.50;0.50;;;23.00;43.70;;;;;;5126433;27;46821;-19
2021/12/31 04:14:06;;;;;;;0.68;0.68;;;23.00;43.70;;;;;;5126261;27;46981;-18
2021/12/31 04:16:32;;;;;;;0.50;0.50;;;23.00;43.70;;;;;;5126587;27;46825;-18
2021/12/31 04:18:59;;;;;;;0.57;0.57;;;23.00;43.60;;;;;;5126217;27;47057;-19
2021/12/31 04:21:29;;;;;;;0.50;0.50;;;23.00;43.60;;;;;;5126183;27;46898;-18
2021/12/31 04:24:06;;;;;;;0.50;0.50;;;23.00;43.60;;;;;;5126459;27;46899;-18
2021/12/31 04:26:33;;;;;;;0.50;0.50;;;23.00;43.60;;;;;;5126798;27;46840;-18
2021/12/31 04:29:00;;;;;;;0.55;0.52;;;23.00;43.60;;;;;;5126203;27;49183;-18
2021/12/31 04:31:26;;;;;;;0.60;0.60;;;23.00;43.60;;;;;;5126472;27;46872;-19
2021/12/31 04:33:53;;;;;;;0.63;0.63;;;23.00;43.50;;;;;;5126427;27;46785;-19
2021/12/31 04:36:20;;;;;;;0.50;0.50;;;23.00;43.50;;;;;;5126634;27;46929;-19
2021/12/31 04:38:48;;;;;;;0.50;0.50;;;23.00;43.50;;;;;;5126236;27;49118;-18
2021/12/31 04:41:15;;;;;;;0.80;0.60;;;23.00;43.50;;;;;;5126132;27;46826;-19
2021/12/31 04:43:41;;;;;;;0.60;0.60;;;23.00;43.50;;;;;;5129270;27;46800;-18
2021/12/31 04:46:08;;;;;;;1.15;0.60;;;23.00;43.50;;;;;;5129717;27;46871;-19
2021/12/31 04:48:35;;;;;;;0.50;0.50;;;23.00;43.50;;;;;;5129291;27;47878;-19
2021/12/31 04:51:02;;;;;;;0.60;0.60;;;23.00;43.40;;;;;;5129793;27;46876;-18
2021/12/31 04:53:28;;;;;;;0.50;0.50;;;23.00;43.40;;;;;;5129749;27;46859;-18
2021/12/31 04:55:57;;;;;;;0.63;0.63;;;23.00;43.40;;;;;;5129854;27;46801;-19
2021/12/31 04:58:23;;;;;;;0.47;0.47;;;23.00;43.40;;;;;;5129550;27;47841;-18
2021/12/31 05:00:50;;;;;;;0.68;0.68;;;23.00;43.40;;;;;;5129148;27;47242;-18
2021/12/31 05:03:17;;;;;;;0.50;0.50;;;23.00;43.40;;;;;;5129461;27;46893;-18
2021/12/31 05:05:43;;;;;;;1.65;0.55;;;23.00;43.40;;;;;;5129473;27;46833;-18
2021/12/31 05:08:10;;;;;;;0.70;0.70;;;23.00;43.40;;;;;;5129248;27;46905;-18
2021/12/31 05:10:37;;;;;;;0.50;0.50;;;23.00;43.40;;;;;;5129124;27;46739;-19
2021/12/31 05:13:05;;;;;;;0.63;0.60;;;23.00;43.30;;;;;;5129263;27;46999;-18
2021/12/31 05:15:35;;;;;;;0.50;0.50;;;23.00;43.30;;;;;;5129043;27;46903;-18
2021/12/31 05:18:01;;;;;;;0.50;0.47;;;23.00;43.30;;;;;;5129004;27;47798;-18
2021/12/31 05:20:28;;;;;;;0.50;0.50;;;23.00;43.30;;;;;;5128908;27;46817;-18
2021/12/31 05:22:57;;;;;;;0.40;0.40;;;23.00;43.30;;;;;;5129252;27;46750;-19
2021/12/31 05:25:24;;;;;;;0.50;0.50;;;23.00;43.30;;;;;;5129233;27;47164;-18
2021/12/31 05:27:50;;;;;;;0.82;0.50;;;23.00;43.30;;;;;;5129135;27;49076;-19
2021/12/31 05:30:19;;;;;;;0.50;0.50;;;23.00;43.20;;;;;;5128689;27;46871;-19
2021/12/31 05:32:46;;;;;;;0.50;0.50;;;23.00;43.20;;;;;;5128994;27;46892;-18
2021/12/31 05:35:13;;;;;;;0.50;0.50;;;22.90;43.10;;;;;;5128910;27;46926;-19
2021/12/31 05:37:39;;;;;;;0.60;0.60;;;23.00;43.20;;;;;;5128696;27;46895;-19
2021/12/31 05:40:07;;;;;;;0.40;0.40;;;23.00;43.20;;;;;;5128586;27;47427;-18
2021/12/31 05:42:34;;;;;;;0.45;0.45;;;23.00;43.10;;;;;;5128826;27;46846;-19
2021/12/31 05:45:00;;;;;;;0.50;0.50;;;23.00;43.10;;;;;;5128847;27;47280;-18
2021/12/31 05:47:28;;;;;;;0.60;0.60;;;23.00;43.10;;;;;;5128777;27;48101;-19
2021/12/31 05:49:55;;;;;;;0.55;0.55;;;23.00;43.10;;;;;;5128633;27;47220;-19
2021/12/31 05:52:22;;;;;;;0.57;0.57;;;23.00;43.00;;;;;;5128846;27;46855;-19
2021/12/31 05:54:49;;;;;;;0.50;0.50;;;23.00;43.00;;;;;;5128113;27;47021;-18
2021/12/31 05:57:16;;;;;;;0.50;0.50;;;23.00;43.00;;;;;;5128529;27;47954;-19
2021/12/31 05:59:42;;;;;;;0.43;0.43;;;23.00;43.00;;;;;;5128378;27;46943;-18
2021/12/31 06:02:09;;;;;;;0.40;0.40;;;23.00;43.00;;;;;;5128263;27;46915;-19
2021/12/31 06:04:37;;;;;;;0.70;0.57;;;23.00;43.00;;;;;;5128742;27;46848;-19
2021/12/31 06:07:04;;;;;;;0.30;0.30;;;23.00;42.90;;;;;;5128185;27;48234;-18
2021/12/31 06:09:31;;;;;;;0.50;0.50;;;23.00;42.90;;;;;;5128288;27;47108;-18
2021/12/31 06:11:59;;;;;;;0.50;0.50;;;22.90;42.90;;;;;;5128606;27;46923;-19
2021/12/31 06:14:26;;;;;;;0.50;0.50;;;22.90;42.90;;;;;;5128290;27;47000;-18
2021/12/31 06:16:52;;;;;;;0.55;0.55;;;22.90;42.80;;;;;;5128130;27;47927;-19
2021/12/31 06:19:19;;;;;;;0.57;0.57;;;22.90;42.80;;;;;;5127836;27;46971;-18
2021/12/31 06:21:47;;;;;;;0.52;0.52;;;22.90;42.80;;;;;;5128247;27;46854;-19
2021/12/31 06:24:14;;;;;;;0.60;0.60;;;22.90;42.80;;;;;;5128330;27;46983;-18
2021/12/31 06:26:41;;;;;;;0.40;0.40;;;22.90;42.70;;;;;;5127982;27;47949;-19
2021/12/31 06:29:07;;;;;;;0.43;0.40;;;22.90;42.70;;;;;;5127937;27;47004;-18
2021/12/31 06:31:34;;;;;;;0.50;0.50;;;22.90;42.70;;;;;;5128111;27;46889;-19
2021/12/31 06:34:01;;;;;;;0.50;0.50;;;22.90;42.70;;;;;;5128302;27;46899;-18
2021/12/31 06:36:27;;;;;;;0.50;0.50;;;22.90;42.70;;;;;;5127959;27;48816;-19
2021/12/31 06:38:57;;;;;;;0.50;0.50;;;22.90;42.60;;;;;;5127973;27;47006;-19
2021/12/31 06:41:24;;;;;;;0.60;0.60;;;22.90;42.70;;;;;;5127929;27;47010;-19
2021/12/31 06:43:50;;;;;;;0.50;0.50;;;22.90;42.60;;;;;;5127897;27;46915;-18
2021/12/31 06:46:18;;;;;;;0.45;0.45;;;22.90;42.60;;;;;;5127742;27;48720;-18
2021/12/31 06:48:46;;;;;;;0.50;0.50;;;22.80;42.60;;;;;;5127565;27;47529;-18
2021/12/31 06:51:12;;;;;;;0.52;0.50;;;22.90;42.70;;;;;;5127543;27;46808;-18
2021/12/31 06:53:39;;;;;;;0.65;0.65;;;22.80;42.50;;;;;;5127685;27;47468;-18
2021/12/31 06:56:07;;;;;;;0.70;0.70;;;22.80;42.50;;;;;;5127502;27;48126;-18
2021/12/31 06:58:34;;;;;;;1.35;0.70;;;22.80;42.50;;;;;;5127591;27;47106;-19
2021/12/31 07:01:01;;;;;;;0.52;0.50;;;22.80;42.50;;;;;;5127770;27;46966;-18
2021/12/31 07:03:27;;;;;;;0.55;0.55;;;22.80;42.50;;;;;;5127448;27;46883;-18
2021/12/31 07:05:54;;;;;;;0.63;0.60;;;22.80;42.40;;;;;;5126264;27;48836;-19
2021/12/31 07:08:21;;;;;;;0.50;0.50;;;22.80;42.50;;;;;;5127473;27;46961;-19
2021/12/31 07:10:47;;;;;;;0.65;0.63;;;22.80;42.40;;;;;;5127152;27;46898;-19
2021/12/31 07:13:15;;;;;;;0.60;0.60;;;22.80;42.30;;;;;;5127676;27;47243;-18
2021/12/31 07:15:44;;;;;;;0.65;0.50;;;22.80;42.30;;;;;;5127124;27;48123;-18
2021/12/31 07:18:11;;;;;;;0.70;0.70;;;22.80;42.30;;;;;;5127218;27;46904;-19
2021/12/31 07:20:37;;;;;;;0.50;0.50;;;22.80;42.30;;;;;;5127277;27;47047;-19
2021/12/31 07:23:05;;;;;;;0.63;0.60;;;22.80;42.30;;;;;;5127294;27;46910;-19
2021/12/31 07:25:32;;;;;;;0.50;0.50;;;22.80;42.30;;;;;;5126612;27;47940;-18
2021/12/31 07:27:59;;;;;;;0.70;0.70;;;22.80;42.20;;;;;;5126886;27;47582;-19
2021/12/31 07:30:27;;;;;;;1.00;0.50;;;22.80;42.20;;;;;;5127185;27;46782;-19
2021/12/31 07:32:54;;;;;;;0.68;0.68;;;22.80;42.20;;;;;;5127489;27;47296;-18
2021/12/31 07:35:20;;;;;;;0.70;0.57;;;22.80;42.20;;;;;;5126910;27;48109;-18
2021/12/31 07:37:47;;;;;;;0.60;0.60;;;22.80;42.10;;;;;;5127028;27;46874;-18
2021/12/31 07:40:23;;;;;;;0.70;0.70;;;22.80;42.10;;;;;;5126822;27;46835;-18
2021/12/31 07:42:50;;;;;;;0.65;0.65;;;22.80;42.10;;;;;;5127234;27;46948;-18
2021/12/31 07:45:17;;;;;;;0.60;0.60;;;22.80;42.10;;;;;;5126307;27;48384;-19
2021/12/31 07:47:45;;;;;;;0.70;0.70;;;22.80;42.10;;;;;;5127010;27;46826;-19
2021/12/31 07:50:12;;;;;;;0.95;0.95;;;22.70;42.00;;;;;;5126789;27;47084;-18
2021/12/31 07:52:39;;;;;;;2.25;0.77;;;22.80;42.00;;;;;;5127130;27;47256;-18
2021/12/31 07:55:06;;;;;;;0.90;0.90;;;22.70;42.00;;;;;;5126548;27;47928;-18
2021/12/31 07:57:33;;;;;;;0.80;0.80;;;22.80;42.00;;;;;;5126815;27;46890;-18
2021/12/31 07:59:59;;;;;;;1.35;0.90;;;22.80;42.00;;;;;;5126525;27;46894;-18
2021/12/31 08:02:26;;;;;;;0.85;0.80;;;22.70;42.00;;;;;;5126440;27;47098;-18
2021/12/31 08:04:54;;;;;;;0.90;0.90;;;22.70;42.00;;;;;;5126375;27;48240;-18
2021/12/31 08:07:21;;;;;;;1.05;0.98;;;22.70;41.90;;;;;;5126617;27;47029;-18
2021/12/31 08:09:47;;;;;;;1.30;1.00;;;22.70;41.90;;;;;;5126164;27;46915;-18
2021/12/31 08:12:14;;;;;;;0.75;0.75;;;22.70;41.90;;;;;;5126862;27;46918;-18
2021/12/31 08:14:41;;;;;;;1.40;0.90;;;22.70;41.90;;;;;;5126096;27;47036;-19
2021/12/31 08:17:08;;;;;;;1.17;0.95;;;22.70;41.80;;;;;;5127126;27;46789;-19
2021/12/31 08:19:34;;;;;;;0.90;0.73;;;22.70;41.80;;;;;;5130166;27;46784;-18
2021/12/31 08:22:02;;;;;;;1.00;1.00;;;22.70;41.80;;;;;;5130308;27;47162;-18
2021/12/31 08:24:29;;;;;;;0.63;0.63;;;22.70;41.80;;;;;;5129976;27;48896;-18
2021/12/31 08:26:56;;;;;;;0.85;0.85;;;22.70;41.80;;;;;;5130096;27;46904;-19
2021/12/31 08:29:22;;;;;;;1.10;1.05;;;22.70;41.70;;;;;;5129735;27;46801;-18
2021/12/31 08:31:49;;;;;;;1.10;1.00;;;22.70;41.80;;;;;;5129961;27;47327;-19
2021/12/31 08:34:16;;;;;;;1.05;0.95;;;22.70;41.70;;;;;;5129870;27;46980;-19
2021/12/31 08:36:42;;;;;;;1.00;0.95;;;22.80;41.70;;;;;;5129727;27;46899;-18
2021/12/31 08:39:10;;;;;;;0.60;0.60;;;22.80;41.70;;;;;;5130016;27;46913;-19
2021/12/31 08:41:37;;;;;;;2.90;1.00;;;22.80;41.70;;;;;;5130088;27;46956;-18
2021/12/31 08:44:05;;;;;;;1.27;1.00;;;22.80;41.70;;;;;;5129235;27;48701;-18
2021/12/31 08:46:31;;;;;;;0.73;0.73;;;22.80;41.70;;;;;;5129895;27;46850;-18
2021/12/31 08:48:58;;;;;;;0.80;0.80;;;22.80;41.70;;;;;;5129432;27;46899;-18
2021/12/31 08:51:25;;;;;;;0.90;0.90;;;22.80;41.70;;;;;;5129934;27;47256;-19
2021/12/31 08:53:51;;;;;;;1.17;0.90;;;22.80;41.70;;;;;;5129483;27;48034;-18
2021/12/31 08:56:19;;;;;;;1.08;0.98;;;22.80;41.70;;;;;;5129333;27;46919;-19
2021/12/31 08:58:46;;;;;;;0.73;0.73;;;22.80;41.70;;;;;;5129395;27;47003;-18
2021/12/31 09:01:14;;;;;;;0.88;0.88;;;22.80;41.80;;;;;;5129914;27;46980;-18
2021/12/31 09:03:40;;;;;;;0.93;0.90;;;22.80;41.80;;;;;;5129319;27;49076;-19
2021/12/31 09:06:07;;;;;;;3.95;1.20;;;22.80;41.80;;;;;;5129644;27;47029;-19
2021/12/31 09:08:34;;;;;;;2.05;1.23;;;22.80;41.80;;;;;;5128951;27;46943;-18
2021/12/31 09:11:00;;;;;;;2.45;1.00;;;22.80;41.80;;;;;;5129668;27;46925;-18
2021/12/31 09:13:31;;;;;;;4.10;1.40;;;22.90;41.90;;;;;;5128845;27;48194;-18
2021/12/31 09:15:57;;;;;;;5.70;1.25;;;22.80;41.80;;;;;;5128918;27;47406;-18
2021/12/31 09:18:24;;;;;;;7.97;1.50;;;22.90;41.90;;;;;;5129355;27;46890;-18
2021/12/31 09:20:52;;;;;;;7.78;1.60;;;22.90;41.90;;;;;;5129227;27;46751;-18
2021/12/31 09:23:19;;;;;;;6.32;1.40;;;22.90;41.90;;;;;;5128786;27;47860;-19
2021/12/31 09:25:46;;;;;;;5.50;1.15;;;22.90;41.90;;;;;;5129041;27;47123;-18
2021/12/31 09:28:12;;;;;;;4.30;1.15;;;22.90;42.00;;;;;;5127739;27;46862;-18
2021/12/31 09:30:41;;;;;;;5.60;1.58;;;22.90;41.90;;;;;;5128141;27;46836;-18
2021/12/31 09:33:08;;;;;;;5.30;1.33;;;22.90;41.90;;;;;;5128890;27;47004;-19
2021/12/31 09:35:34;;;;;;;5.90;1.52;;;22.90;41.90;;;;;;5128328;27;47167;-19
2021/12/31 09:38:06;;;;;;;9.50;1.60;;;22.90;41.90;;;;;;5128807;27;46989;-19
2021/12/31 09:40:32;;;;;;;3.42;1.13;;;22.90;41.90;;;;;;5128804;27;47200;-18
2021/12/31 09:43:02;;;;;;;4.57;1.40;;;23.00;42.00;;;;;;5128616;27;49076;-18
2021/12/31 09:45:29;;;;;;;8.50;1.60;;;23.00;42.00;;;;;;5127974;27;46938;-18
2021/12/31 09:47:59;;;;;;;4.60;1.20;;;23.00;41.90;;;;;;5128650;27;46793;-18
2021/12/31 09:50:26;;;;;;;2.90;1.10;;;23.00;41.90;;;;;;5128969;27;46794;-18
2021/12/31 09:52:54;;;;;;;4.78;1.05;;;23.00;41.90;;;;;;5128865;27;47916;-19
2021/12/31 09:55:35;;;;;;;3.67;1.50;;;23.10;41.90;;;;;;5128438;27;47101;-18
2021/12/31 09:58:01;;;;;;;3.83;1.38;;;23.10;41.90;;;;;;5129034;27;46802;-18
2021/12/31 10:00:29;;;;;;;2.50;1.30;;;23.10;41.90;;;;;;5127967;27;47190;-18
2021/12/31 10:03:10;;;;;;;4.80;1.30;;;23.10;41.90;;;;;;5127999;27;48911;-19
2021/12/31 10:05:41;;;;;;;4.68;1.40;;;23.10;41.90;;;;;;5127873;27;47437;-19
2021/12/31 10:08:14;;;;;;;2.35;1.55;;;23.20;41.90;;;;;;5128543;27;46885;-18
2021/12/31 10:10:40;;;;;;;3.78;1.15;;;23.20;42.00;;;;;;5128364;27;46847;-18
2021/12/31 10:13:08;;;;;;;2.88;1.30;;;23.20;41.90;;;;;;5128328;27;48145;-18
2021/12/31 10:15:38;;;;;;;3.17;1.10;;;23.20;41.90;;;;;;5126431;27;46987;-18
2021/12/31 10:18:12;;;;;;;3.10;1.50;;;23.20;41.90;;;;;;5128546;27;46910;-19
2021/12/31 10:20:47;;;;;;;5.38;1.65;;;23.20;42.00;;;;;;5127917;27;46764;-18
2021/12/31 10:23:15;;;;;;;4.47;1.35;;;23.20;41.90;;;;;;5107039;27;47959;-18
2021/12/31 10:25:41;;;;;;;3.55;1.40;;;23.20;42.00;;;;;;5107346;27;47046;-18
2021/12/31 10:28:09;;;;;;;3.03;1.52;;;23.20;42.00;;;;;;5107555;27;46865;-19
2021/12/31 10:30:36;;;;;;;2.55;1.38;;;23.20;42.60;;;;;;5107289;27;47197;-18
2021/12/31 10:33:03;;;;;;;2.58;1.23;;;23.20;42.00;;;;;;5107373;27;47824;-18
2021/12/31 10:35:38;;;;;;;4.57;1.33;;;23.20;42.00;;;;;;5105993;27;47318;-18
2021/12/31 10:38:06;;;;;;;2.97;1.23;;;23.20;42.10;;;;;;5106491;27;46996;-18
2021/12/31 10:40:33;;;;;;;4.30;1.20;;;23.20;42.00;;;;;;5126123;27;46935;-18
2021/12/31 10:43:07;;;;;;;1.83;1.40;;;23.30;42.10;;;;;;5126626;27;48793;-18
2021/12/31 10:45:34;;;;;;;4.00;1.50;;;23.30;42.10;;;;;;5126606;27;47565;-18
2021/12/31 10:48:05;;;;;;;1.27;1.20;;;23.30;42.10;;;;;;5126957;27;46970;-18
2021/12/31 10:50:35;;;;;;;2.42;1.20;;;23.30;42.00;;;;;;5127799;27;46864;-18
2021/12/31 10:53:07;;;;;;;1.67;1.23;;;23.30;42.00;;;;;;5127571;27;47124;-18
2021/12/31 10:55:39;;;;;;;3.88;1.15;;;23.30;42.00;;;;;;5127685;27;46969;-18
2021/12/31 10:58:07;;;;;;;2.75;1.30;;;23.30;42.10;;;;;;5127862;27;46913;-18
2021/12/31 11:00:34;;;;;;;2.63;1.40;;;23.30;42.10;;;;;;5127990;27;47094;-18
2021/12/31 11:03:01;;;;;;;1.40;1.30;;;23.30;42.10;;;;;;5127670;27;49045;-18
2021/12/31 11:05:28;;;;;;;2.47;1.20;;;23.30;42.10;;;;;;5126963;27;46877;-18
2021/12/31 11:07:59;;;;;;;2.25;1.30;;;23.30;42.10;;;;;;5127392;27;46895;-18
2021/12/31 11:10:27;;;;;;;3.22;1.15;;;23.30;42.10;;;;;;5127654;27;47179;-18
2021/12/31 11:12:54;;;;;;;1.33;1.10;;;23.40;42.20;;;;;;5127434;27;48860;-19
2021/12/31 11:15:20;;;;;;;1.52;1.10;;;23.40;42.20;;;;;;5127222;27;46790;-18
2021/12/31 11:17:48;;;;;;;2.58;1.23;;;23.40;42.10;;;;;;5127161;27;46820;-19
2021/12/31 11:20:19;;;;;;;2.40;1.27;;;23.40;42.10;;;;;;5127450;27;47274;-18
2021/12/31 11:22:45;;;;;;;1.73;1.10;;;23.50;42.10;;;;;;5126335;27;47897;-18
2021/12/31 11:25:27;;;;;;;1.80;1.30;;;23.50;42.00;;;;;;5126560;27;46789;-18
2021/12/31 11:27:54;;;;;;;2.58;1.42;;;23.50;42.00;;;;;;5127479;27;46830;-18
2021/12/31 11:30:29;;;;;;;1.50;1.40;;;23.60;42.00;;;;;;5125273;27;47103;-18
2021/12/31 11:32:57;;;;;;;2.50;1.73;;;23.60;42.00;;;;;;5126734;27;49049;-18
2021/12/31 11:35:29;;;;;;;2.70;2.05;;;23.60;42.00;;;;;;5126833;27;47263;-18
2021/12/31 11:37:56;;;;;;;2.85;2.00;;;23.60;42.00;;;;;;5124970;27;46999;-18
2021/12/31 11:40:35;;;;;;;2.83;1.92;;;23.60;42.00;;;;;;5126349;27;46929;-18
2021/12/31 11:43:23;;;;;;;2.85;2.33;;;23.60;42.00;;;;;;5126319;27;47835;-18
2021/12/31 11:46:32;;;;;;;2.72;2.53;;;23.70;42.00;;;;;;5126013;27;47145;-18
2021/12/31 11:49:00;;;;;;;3.13;2.63;;;23.70;41.90;;;;;;5126478;27;46778;-18
2021/12/31 11:51:29;;;;;;;4.32;2.72;;;23.70;42.00;;;;;;5126056;27;47149;-18
2021/12/31 11:54:17;;;;;;;4.38;2.60;;;23.70;42.00;;;;;;5126346;27;49095;-18
2021/12/31 11:57:00;;;;;;;4.05;3.00;;;23.70;42.00;;;;;;5126510;27;46892;-19
2021/12/31 11:59:37;;;;;;;4.47;2.70;;;23.70;42.00;;;;;;5126679;27;46910;-18
2021/12/31 12:02:23;;;;;;;3.45;3.03;;;23.70;42.00;;;;;;5126776;27;46900;-19
2021/12/31 12:05:15;;;;;;;3.67;2.85;;;23.80;42.10;;;;;;5126125;27;48206;-18
2021/12/31 12:07:46;;;;;;;3.63;3.10;;;23.80;42.00;;;;;;5126638;27;47136;-18
2021/12/31 12:10:20;;;;;;;3.20;2.90;;;23.80;42.00;;;;;;5126221;27;47044;-18
2021/12/31 12:12:53;;;;;;;5.50;3.60;;;23.80;42.00;;;;;;5126632;27;47237;-18
2021/12/31 12:15:27;;;;;;;4.53;3.20;;;23.80;42.10;;;;;;5126172;27;48157;-18
2021/12/31 12:17:54;;;;;;;3.58;3.15;;;23.80;42.10;;;;;;5126562;27;46923;-18
2021/12/31 12:20:22;;;;;;;3.70;3.40;;;23.80;42.20;;;;;;5125940;27;46877;-18
2021/12/31 12:22:53;;;;;;;3.33;3.00;;;23.80;42.10;;;;;;5126370;27;47236;-18
2021/12/31 12:25:21;;;;;;;4.22;3.40;;;23.80;42.20;;;;;;5126048;27;47995;-18
2021/12/31 12:27:51;;;;;;;3.53;3.22;;;23.80;42.10;;;;;;5126071;27;46917;-18
2021/12/31 12:30:18;;;;;;;3.92;3.05;;;23.80;42.20;;;;;;5125930;27;46913;-18
2021/12/31 12:33:04;;;;;;;4.15;3.05;;;23.80;42.20;;;;;;5126718;27;46914;-18
2021/12/31 12:35:31;;;;;;;4.38;3.40;;;23.80;42.20;;;;;;5125355;27;49096;-18
2021/12/31 12:37:59;;;;;;;3.47;3.17;;;23.80;42.20;;;;;;5126039;27;47141;-19
2021/12/31 12:40:36;;;;;;;4.30;3.65;;;23.80;42.20;;;;;;5125728;27;46836;-18
2021/12/31 12:43:04;;;;;;;3.42;3.10;;;23.80;42.40;;;;;;5125860;27;47102;-18
2021/12/31 12:45:32;;;;;;;4.88;3.30;;;23.80;42.40;;;;;;5125527;27;46925;-19
2021/12/31 12:47:59;;;;;;;3.80;3.40;;;23.80;42.40;;;;;;5125866;27;46917;-18
2021/12/31 12:50:25;;;;;;;4.30;3.90;;;23.80;42.40;;;;;;5125696;27;46791;-18
2021/12/31 12:52:55;;;;;;;4.43;3.38;;;23.80;42.50;;;;;;5126324;27;46930;-18
2021/12/31 12:55:22;;;;;;;4.90;3.72;;;23.80;42.50;;;;;;5125825;27;48048;-18
2021/12/31 12:57:52;;;;;;;5.18;3.80;;;23.80;42.50;;;;;;5125720;27;47002;-18